Map

Track Data

SID SEASON NUMBER BASIN SUBBASIN NAME ISO_TIME NATURE LAT LON WMO_WIND WMO_PRES WMO_AGENCY TRACK_TYPE DIST2LAND LANDFALL IFLAG USA_AGENCY USA_ATCF_ID USA_LAT USA_LON USA_RECORD USA_STATUS USA_WIND USA_PRES USA_SSHS USA_R34_NE USA_R34_SE USA_R34_SW USA_R34_NW USA_R50_NE USA_R50_SE USA_R50_SW USA_R50_NW USA_R64_NE USA_R64_SE USA_R64_SW USA_R64_NW USA_POCI USA_ROCI USA_RMW USA_EYE TOKYO_LAT TOKYO_LON TOKYO_GRADE TOKYO_WIND TOKYO_PRES TOKYO_R50_DIR TOKYO_R50_LONG TOKYO_R50_SHORT TOKYO_R30_DIR TOKYO_R30_LONG TOKYO_R30_SHORT TOKYO_LAND CMA_LAT CMA_LON CMA_CAT CMA_WIND CMA_PRES HKO_LAT HKO_LON HKO_CAT HKO_WIND HKO_PRES NEWDELHI_LAT NEWDELHI_LON NEWDELHI_GRADE NEWDELHI_WIND NEWDELHI_PRES NEWDELHI_CI NEWDELHI_DP NEWDELHI_POCI REUNION_LAT REUNION_LON REUNION_TYPE REUNION_WIND REUNION_PRES REUNION_TNUM REUNION_CI REUNION_RMW REUNION_R34_NE REUNION_R34_SE REUNION_R34_SW REUNION_R34_NW REUNION_R50_NE REUNION_R50_SE REUNION_R50_SW REUNION_R50_NW REUNION_R64_NE REUNION_R64_SE REUNION_R64_SW REUNION_R64_NW BOM_LAT BOM_LON BOM_TYPE BOM_WIND BOM_PRES BOM_TNUM BOM_CI BOM_RMW BOM_R34_NE BOM_R34_SE BOM_R34_SW BOM_R34_NW BOM_R50_NE BOM_R50_SE BOM_R50_SW BOM_R50_NW BOM_R64_NE BOM_R64_SE BOM_R64_SW BOM_R64_NW BOM_ROCI BOM_POCI BOM_EYE BOM_POS_METHOD BOM_PRES_METHOD NADI_LAT NADI_LON NADI_CAT NADI_WIND NADI_PRES WELLINGTON_LAT WELLINGTON_LON WELLINGTON_WIND WELLINGTON_PRES DS824_LAT DS824_LON DS824_STAGE DS824_WIND DS824_PRES TD9636_LAT TD9636_LON TD9636_STAGE TD9636_WIND TD9636_PRES TD9635_LAT TD9635_LON TD9635_WIND TD9635_PRES TD9635_ROCI NEUMANN_LAT NEUMANN_LON NEUMANN_CLASS NEUMANN_WIND NEUMANN_PRES MLC_LAT MLC_LON MLC_CLASS MLC_WIND MLC_PRES USA_GUST BOM_GUST BOM_GUST_PER REUNION_GUST REUNION_GUST_PER USA_SEAHGT USA_SEARAD_NE USA_SEARAD_SE USA_SEARAD_SW USA_SEARAD_NW STORM_SPEED STORM_DIR
1976363N08089 1976 145 NI BB NOT_NAMED 1976-12-28 00:00:00 TS 7.50000 88.5000 main 730 730 O________OO___ jtwc_io IO141976 7.50000 88.5000 -1 7.50000 88.5000 TC 7.50000 88.5000 1 3 71
1976363N08089 1976 145 NI BB NOT_NAMED 1976-12-28 03:00:00 TS 7.55264 88.6540 main 752 742 P________PP___ IO141976 7.55002 88.6600 -1 7.55002 88.6600 TC 7.55789 88.6421 1 3 70
1976363N08089 1976 145 NI BB NOT_NAMED 1976-12-28 06:00:00 TS 7.60420 88.7925 main 742 731 O________OP___ jtwc_io IO141976 7.60000 88.8000 -1 7.60000 88.8000 TC 7.61259 88.7774 1 3 68
1976363N08089 1976 145 NI BB NOT_NAMED 1976-12-28 09:00:00 TS 7.65366 88.9047 main 735 724 P________PP___ IO141976 7.64999 88.9075 -1 7.64999 88.9075 TC 7.66100 88.8990 1 2 65
1976363N08089 1976 145 NI BB NOT_NAMED 1976-12-28 12:00:00 TS 7.70000 89.0000 main 724 714 O________OO___ jtwc_io IO141976 7.70000 89.0000 -1 7.70000 89.0000 TC 7.70000 89.0000 1 2 64
1976363N08089 1976 145 NI BB NOT_NAMED 1976-12-28 15:00:00 TS 7.74320 89.0930 main 714 707 P________PP___ IO141976 7.75000 89.1000 -1 7.75000 89.1000 TC 7.72960 89.0789 1 2 64
1976363N08089 1976 145 NI BB NOT_NAMED 1976-12-28 18:00:00 TS 7.78745 89.1851 main 707 697 O________OP___ jtwc_io IO141976 7.80000 89.2000 -1 7.80000 89.2000 TC 7.76236 89.1552 1 2 65
1976363N08089 1976 145 NI BB NOT_NAMED 1976-12-28 21:00:00 TS 7.82796 89.2697 main 697 690 P________PP___ IO141976 7.83497 89.2775 -1 7.83497 89.2775 TC 7.81395 89.2539 1 2 62
1976363N08089 1976 145 NI BB NOT_NAMED 1976-12-29 00:00:00 TS 7.90000 89.4000 main 690 674 O________OO___ jtwc_io IO141976 7.90000 89.4000 -1 7.90000 89.4000 TC 7.90000 89.4000 1 4 60
1976363N08089 1976 145 NI BB NOT_NAMED 1976-12-29 03:00:00 TS 8.03683 89.6310 main 674 654 P________PP___ IO141976 8.02750 89.6200 -1 8.02750 89.6200 TC 8.05549 89.6529 1 6 58
1976363N08089 1976 145 NI BB NOT_NAMED 1976-12-29 06:00:00 TS 8.21426 89.9166 main 654 635 O________OP___ jtwc_io IO141976 8.20000 89.9000 -1 8.20000 89.9000 TC 8.24277 89.9497 1 7 57
1976363N08089 1976 145 NI BB NOT_NAMED 1976-12-29 09:00:00 TS 8.42124 90.2305 main 635 618 P________PP___ IO141976 8.41505 90.2224 -1 8.41505 90.2224 TC 8.43363 90.2467 1 7 56
1976363N08089 1976 145 NI BB NOT_NAMED 1976-12-29 12:00:00 TS 8.60000 90.5000 main 618 609 O________OO___ jtwc_io IO141976 8.60000 90.5000 -1 8.60000 90.5000 TC 8.60000 90.5000 2 5 58
1976363N08089 1976 145 NI BB NOT_NAMED 1976-12-29 15:00:00 TS 8.66699 90.6274 main 615 606 P________PP___ IO141976 8.66496 90.6301 -1 8.66496 90.6301 TC 8.67105 90.6222 2 2 62
1976363N08089 1976 145 NI BB NOT_NAMED 1976-12-29 18:00:00 TS 8.70658 90.7002 main 606 603 O________OP___ jtwc_io IO141976 8.70000 90.7000 XX 30 -5 8.70000 90.7000 TC 30 8.71973 90.7005 2 2 54
1976363N08089 1976 145 NI BB NOT_NAMED 1976-12-29 21:00:00 TS 8.77450 90.7779 main 603 601 P________PP___ IO141976 8.76997 90.7776 XX 32 -5 8.76997 90.7776 TC 32 8.78355 90.7785 2 3 46
1976363N08089 1976 145 NI BB NOT_NAMED 1976-12-30 00:00:00 TS 8.90000 90.9000 main 601 591 O________OO___ jtwc_io IO141976 8.90000 90.9000 XX 35 -5 8.90000 90.9000 TC 35 8.90000 90.9000 2 5 45
1976363N08089 1976 145 NI BB NOT_NAMED 1976-12-30 03:00:00 TS 9.11786 91.1256 main 598 589 P________PP___ IO141976 9.12000 91.1200 XX 37 -5 9.12000 91.1200 TC 37 9.11358 91.1367 2 7 45
1976363N08089 1976 145 NI BB NOT_NAMED 1976-12-30 06:00:00 TS 9.39424 91.4066 main 597 589 O________OP___ jtwc_io IO141976 9.40000 91.4000 XX 40 -5 9.40000 91.4000 TC 40 9.38272 91.4197 2 8 45
1976363N08089 1976 145 NI BB NOT_NAMED 1976-12-30 09:00:00 TS 9.69017 91.7110 main 599 592 P________PP___ IO141976 9.69253 91.7075 XX 42 -5 9.69253 91.7075 TC 42 9.68547 91.7180 2 8 44
1976363N08089 1976 145 NI BB NOT_NAMED 1976-12-30 12:00:00 TS 10.0000 92.0000 main 606 606 O________OO___ jtwc_io IO141976 10.0000 92.0000 XX 45 -5 10.0000 92.0000 TC 45 10.0000 92.0000 4 8 39
1976363N08089 1976 145 NI BB NOT_NAMED 1976-12-30 15:00:00 TS 10.3030 92.2213 main 621 621 P________PP___ IO141976 10.3000 92.2151 XX 47 -5 10.3000 92.2151 TC 47 10.3090 92.2338 4 7 34
1976363N08089 1976 145 NI BB NOT_NAMED 1976-12-30 18:00:00 TS 10.6075 92.4150 main 621 582 O________OP___ jtwc_io IO141976 10.6000 92.4000 XX 50 -5 10.6000 92.4000 TC 50 10.6224 92.4450 4 7 32
1976363N08089 1976 145 NI BB NOT_NAMED 1976-12-30 21:00:00 TS 10.9182 92.6162 main 582 543 P________PP___ IO141976 10.9150 92.6075 XX 52 -5 10.9150 92.6075 TC 52 10.9246 92.6337 4 7 32
1976363N08089 1976 145 NI BB NOT_NAMED 1976-12-31 00:00:00 TS 11.2000 92.8000 main 543 515 O________OO___ jtwc_io IO141976 11.2000 92.8000 XX 55 -5 11.2000 92.8000 TC 55 11.2000 92.8000 4 6 34
1976363N08089 1976 145 NI BB NOT_NAMED 1976-12-31 03:00:00 TS 11.4209 92.9603 main 515 490 P________PP___ IO141976 11.4150 92.9650 XX 55 -5 11.4150 92.9650 TC 55 11.4327 92.9508 4 5 35
1976363N08089 1976 145 NI BB NOT_NAMED 1976-12-31 06:00:00 TS 11.6125 93.0934 main 490 466 O________OP___ jtwc_io IO141976 11.6000 93.1000 XX 55 -5 11.6000 93.1000 TC 55 11.6374 93.0802 4 5 32
1976363N08089 1976 145 NI BB NOT_NAMED 1976-12-31 09:00:00 TS 11.8078 93.2032 main 466 441 P________PP___ IO141976 11.8000 93.2075 XX 52 -5 11.8000 93.2075 TC 52 11.8234 93.1945 4 4 28
1976363N08089 1976 145 NI BB NOT_NAMED 1976-12-31 12:00:00 TS 12.0000 93.3000 main 441 417 O________OO___ jtwc_io IO141976 12.0000 93.3000 XX 50 -5 12.0000 93.3000 TC 50 12.0000 93.3000 4 5 26
1976363N08089 1976 145 NI BB NOT_NAMED 1976-12-31 15:00:00 TS 12.2180 93.4092 main 417 392 P________PP___ IO141976 12.2075 93.4000 XX 47 -5 12.2075 93.4000 TC 47 12.2391 93.4274 4 5 26
1976363N08089 1976 145 NI BB NOT_NAMED 1976-12-31 18:00:00 TS 12.4208 93.5150 main 392 368 O________OP___ jtwc_io IO141976 12.4000 93.5000 XX 45 -5 12.4000 93.5000 TC 45 12.4625 93.5449 4 4 28
1976363N08089 1976 145 NI BB NOT_NAMED 1976-12-31 21:00:00 TS 12.6066 93.6183 main 368 355 P________PP___ IO141976 12.5950 93.6075 XX 42 -5 12.5950 93.6075 TC 42 12.6297 93.6400 4 3 33
1976363N08089 1976 145 NI BB NOT_NAMED 1977-01-01 00:00:00 TS 12.7000 93.7000 main 355 353 O________OO___ jtwc_io IO141976 12.7000 93.7000 XX 40 -5 12.7000 93.7000 TC 40 12.7000 93.7000 2 2 78
1976363N08089 1976 145 NI BB NOT_NAMED 1977-01-01 03:00:00 TS 12.6403 93.7788 main 364 364 P________PP___ IO141976 12.6600 93.7801 XX 37 -5 12.6600 93.7801 TC 37 12.6010 93.7761 2 3 157
1976363N08089 1976 145 NI BB NOT_NAMED 1977-01-01 06:00:00 TS 12.4698 93.8026 main 375 375 O________OP___ jtwc_io IO141976 12.5000 93.8000 XX 35 -5 12.5000 93.8000 TC 35 12.4095 93.8077 2 4 184
1976363N08089 1976 145 NI BB NOT_NAMED 1977-01-01 09:00:00 TS 12.2244 93.7651 main 408 408 P________PP___ IO141976 12.2424 93.7675 XX 32 -5 12.2424 93.7675 TC 32 12.1883 93.7604 2 5 203
1976363N08089 1976 145 NI BB NOT_NAMED 1977-01-01 12:00:00 TS 12.0000 93.6000 main 434 434 O________OO___ jtwc_io IO141976 12.0000 93.6000 XX 30 -5 12.0000 93.6000 TC 30 12.0000 93.6000 2 6 238
1976363N08089 1976 145 NI BB NOT_NAMED 1977-01-01 15:00:00 TS 11.9084 93.2500 main 452 452 P________PP___ IO141976 11.9125 93.2525 XX 30 -5 11.9125 93.2525 TC 30 11.9001 93.2451 2 8 261
1976363N08089 1976 145 NI BB NOT_NAMED 1977-01-01 18:00:00 TS 11.8820 92.7958 main 469 469 O________OP___ jtwc_io IO141976 11.9000 92.8000 XX 30 -5 11.9000 92.8000 TC 30 11.8461 92.7872 2 9 267
1976363N08089 1976 145 NI BB NOT_NAMED 1977-01-01 21:00:00 TS 11.8564 92.3169 main 492 492 P________PP___ IO141976 11.8626 92.3200 XX 27 -5 11.8626 92.3200 TC 27 11.8439 92.3108 2 9 271
1976363N08089 1976 145 NI BB NOT_NAMED 1977-01-02 00:00:00 TS 11.9000 91.9000 main 513 506 O________OO___ jtwc_io IO141976 11.9000 91.9000 XX 25 -5 11.9000 91.9000 TC 25 11.9000 91.9000 1 7 287
1976363N08089 1976 145 NI BB NOT_NAMED 1977-01-02 03:00:00 TS 12.0627 91.6460 main 512 501 P________PP___ IO141976 12.0774 91.6476 XX 22 -5 12.0774 91.6476 TC 22 12.0334 91.6428 1 6 313
1976363N08089 1976 145 NI BB NOT_NAMED 1977-01-02 06:00:00 TS 12.2732 91.4884 main 501 499 O________OP___ jtwc_io IO141976 12.3000 91.5000 XX 20 -5 12.3000 91.5000 TC 20 12.2196 91.4653 1 5 325
1976363N08089 1976 145 NI BB NOT_NAMED 1977-01-02 09:00:00 TS 12.4553 91.3651 main 491 489 P________PP___ IO141976 12.4725 91.3700 XX 20 -5 12.4725 91.3700 TC 20 12.4210 91.3552 1 4 331
1976363N08089 1976 145 NI BB NOT_NAMED 1977-01-02 12:00:00 TS 12.6000 91.3000 main 489 481 O________OO___ jtwc_io IO141976 12.6000 91.3000 XX 20 -5 12.6000 91.3000 TC 20 12.6000 91.3000 1 2 337
1976363N08089 1976 145 NI BB NOT_NAMED 1977-01-02 15:00:00 TS 12.6715 91.2752 main 481 481 P________PP___ IO141976 12.6575 91.2775 XX -5 12.6575 91.2775 TC 12.6996 91.2705 1 1 353
1976363N08089 1976 145 NI BB NOT_NAMED 1977-01-02 18:00:00 TS 12.7241 91.2966 main 481 473 O________OP___ jtwc_io IO141976 12.7000 91.3000 -1 12.7000 91.3000 TC 12.7724 91.2899 1 2 28
1976363N08089 1976 145 NI BB NOT_NAMED 1977-01-02 21:00:00 TS 12.8063 91.3414 main 473 458 P________PP___ IO141976 12.7925 91.3425 -1 12.7925 91.3425 TC 12.8340 91.3393 1 2 29
1976363N08089 1976 145 NI BB NOT_NAMED 1977-01-03 00:00:00 TS 12.9000 91.4000 main 458 450 O________OO___ jtwc_io IO141976 12.9000 91.4000 -1 12.9000 91.4000 TC 12.9000 91.4000 1 2 30
1976363N08089 1976 145 NI BB NOT_NAMED 1977-01-03 03:00:00 TS 12.9942 91.4522 main 442 434 P________PP___ IO141976 13.0000 91.4500 -1 13.0000 91.4500 TC 12.9825 91.4566 1 2 27
1976363N08089 1976 145 NI BB NOT_NAMED 1977-01-03 06:00:00 TS 13.0933 91.5025 main 434 426 O________OP___ jtwc_io IO141976 13.1000 91.5000 -1 13.1000 91.5000 TC 13.0800 91.5075 1 2 26
1976363N08089 1976 145 NI BB NOT_NAMED 1977-01-03 09:00:00 TS 13.1958 91.5516 main 419 411 P________PP___ IO141976 13.2000 91.5500 -1 13.2000 91.5500 TC 13.1875 91.5547 1 2 25
1976363N08089 1976 145 NI BB NOT_NAMED 1977-01-03 12:00:00 TS 13.3000 91.6000 main 411 O________OO___ jtwc_io IO141976 13.3000 91.6000 -1 13.3000 91.6000 TC 13.3000 91.6000 6 2 21

About IBTrACS Database

This database is a web-friendly format of International Best Track Archive for Climate Stewardship (IBTrACS), a global best track data archive curated by NOAA dating back to 1842.

Updated: 2021-10-08